createdAt,value
2023-02-23T00:02:14.064Z,44.72
2023-02-23T00:04:49.008Z,43.83
2023-02-23T00:07:19.346Z,62.38
2023-02-23T00:09:54.075Z,70.00
2023-02-23T00:12:28.041Z,66.53
2023-02-23T00:15:01.027Z,64.28
2023-02-23T00:17:27.908Z,67.22
2023-02-23T00:19:55.296Z,58.28
2023-02-23T00:22:29.064Z,60.42
2023-02-23T00:24:57.487Z,56.28
2023-02-23T00:27:31.021Z,50.97
2023-02-23T00:30:04.076Z,61.95
2023-02-23T00:32:31.046Z,63.45
2023-02-23T00:35:05.090Z,66.70
2023-02-23T00:37:38.055Z,66.90
2023-02-23T00:40:13.798Z,66.38
2023-02-23T00:42:48.069Z,67.55
2023-02-23T00:45:22.063Z,66.15
2023-02-23T00:47:58.106Z,62.25
2023-02-23T00:50:24.927Z,60.17
2023-02-23T00:52:58.110Z,49.55
2023-02-23T00:55:25.179Z,46.38
2023-02-23T00:57:58.109Z,46.08
2023-02-23T01:00:28.348Z,48.95
2023-02-23T01:03:08.094Z,45.08
2023-02-23T01:05:35.383Z,57.13
2023-02-23T01:08:09.112Z,58.85
2023-02-23T01:10:50.123Z,59.97
2023-02-23T01:13:18.053Z,58.88
2023-02-23T01:15:51.150Z,54.83
2023-02-23T01:18:20.173Z,63.45
2023-02-23T01:20:54.160Z,63.83
2023-02-23T01:23:21.865Z,57.05
2023-02-23T01:25:56.139Z,62.00
2023-02-23T01:28:31.149Z,52.05
2023-02-23T01:30:57.956Z,54.47
2023-02-23T01:33:31.146Z,54.45
2023-02-23T01:35:59.380Z,49.83
2023-02-23T01:38:33.163Z,68.82
2023-02-23T01:41:06.152Z,61.80
2023-02-23T01:43:33.268Z,62.45
2023-02-23T01:46:06.192Z,66.35
2023-02-23T01:48:44.164Z,70.70
2023-02-23T01:51:18.275Z,75.03
2023-02-23T01:54:01.199Z,68.80
2023-02-23T01:56:32.925Z,66.25
2023-02-23T01:59:12.218Z,62.42
2023-02-23T02:01:43.047Z,73.53
2023-02-23T02:04:23.180Z,71.55
2023-02-23T02:06:53.643Z,71.60
2023-02-23T02:09:34.218Z,60.47
2023-02-23T02:12:02.580Z,58.60
2023-02-23T02:14:38.241Z,52.45
2023-02-23T02:17:35.576Z,54.63
2023-02-23T02:20:50.234Z,48.17
2023-02-23T02:23:40.373Z,59.78
2023-02-23T02:26:42.261Z,61.25
2023-02-23T02:29:46.276Z,54.20
2023-02-23T02:32:46.231Z,51.90
2023-02-23T02:35:47.245Z,64.70
2023-02-23T02:38:35.497Z,64.32
2023-02-23T02:41:18.532Z,64.82
2023-02-23T02:44:04.579Z,59.95
2023-02-23T02:46:45.303Z,57.45
2023-02-23T02:49:28.088Z,51.47
2023-02-23T02:54:40.635Z,57.05
2023-02-23T02:57:16.289Z,53.38
2023-02-23T03:00:13.281Z,46.97
2023-02-23T03:03:06.321Z,44.25
2023-02-23T03:06:03.945Z,45.55
2023-02-23T03:09:19.327Z,40.00
2023-02-23T03:12:47.315Z,40.97
2023-02-23T03:16:03.543Z,51.72
2023-02-23T03:19:04.623Z,53.22
2023-02-23T03:22:16.189Z,46.53
2023-02-23T03:25:17.383Z,46.25
2023-02-23T03:28:09.946Z,49.75
2023-02-23T03:31:22.479Z,51.10
2023-02-23T03:34:26.316Z,48.60
2023-02-23T03:37:50.385Z,43.50
2023-02-23T03:40:45.382Z,48.75
2023-02-23T03:43:43.382Z,42.78
2023-02-23T03:46:31.424Z,49.25
2023-02-23T03:49:27.363Z,53.72
2023-02-23T03:52:17.617Z,53.25
2023-02-23T03:55:16.372Z,52.78
2023-02-23T03:58:04.500Z,51.03
2023-02-23T04:01:03.531Z,52.00
2023-02-23T04:03:53.234Z,56.17
2023-02-23T04:06:48.397Z,67.78
2023-02-23T04:09:34.249Z,78.40
2023-02-23T04:12:39.688Z,77.03
2023-02-23T04:15:21.340Z,73.80
2023-02-23T04:17:54.420Z,66.53
2023-02-23T04:20:21.851Z,68.80
2023-02-23T04:22:55.432Z,62.38
2023-02-23T04:25:22.932Z,61.67
2023-02-23T04:27:50.869Z,78.75
2023-02-23T04:30:25.661Z,72.03
2023-02-23T04:33:00.443Z,66.15
2023-02-23T04:35:29.892Z,75.18
2023-02-23T04:38:03.461Z,77.78
2023-02-23T04:40:30.742Z,72.43
2023-02-23T04:43:11.727Z,84.60
2023-02-23T04:45:38.672Z,81.43
2023-02-23T04:48:06.201Z,87.15
2023-02-23T04:50:40.602Z,72.30
2023-02-23T04:53:08.163Z,77.25
2023-02-23T04:55:35.074Z,70.50
2023-02-23T04:58:09.476Z,69.60
2023-02-23T05:00:45.508Z,60.58
2023-02-23T05:03:17.632Z,58.92
2023-02-23T05:05:51.484Z,55.10
2023-02-23T05:08:18.245Z,58.47
2023-02-23T05:10:52.519Z,68.78
2023-02-23T05:13:20.596Z,54.90
2023-02-23T05:15:54.489Z,57.47
2023-02-23T05:18:21.249Z,57.75
2023-02-23T05:20:54.528Z,63.58
2023-02-23T05:23:21.904Z,59.22
2023-02-23T05:25:55.536Z,68.82
2023-02-23T05:28:22.941Z,71.20
2023-02-23T05:30:56.650Z,57.30
2023-02-23T05:33:23.474Z,61.03
2023-02-23T05:35:56.516Z,59.97
2023-02-23T05:38:29.545Z,61.53
2023-02-23T05:41:03.542Z,61.70
2023-02-23T05:43:30.343Z,74.15
2023-02-23T05:46:03.593Z,78.32
2023-02-23T05:48:36.566Z,73.15
2023-02-23T05:51:11.555Z,80.30
2023-02-23T05:53:45.584Z,72.30
2023-02-23T05:56:28.582Z,72.13
2023-02-23T05:59:06.572Z,58.53
2023-02-23T06:01:40.651Z,63.33
2023-02-23T06:04:07.657Z,60.08
2023-02-23T06:06:41.628Z,62.85
2023-02-23T06:09:08.512Z,53.35
2023-02-23T06:11:41.575Z,58.40
2023-02-23T06:14:08.653Z,51.83
2023-02-23T06:16:35.519Z,45.80
2023-02-23T06:19:08.632Z,45.05
2023-02-23T06:21:42.617Z,40.65
2023-02-23T06:24:09.597Z,47.67
2023-02-23T06:26:44.574Z,40.80
2023-02-23T06:29:18.657Z,39.75
2023-02-23T06:31:45.704Z,41.00
2023-02-23T06:34:18.594Z,44.80
2023-02-23T06:36:45.706Z,57.72
2023-02-23T06:39:19.714Z,63.80
2023-02-23T06:41:46.636Z,67.75
2023-02-23T06:44:19.660Z,65.72
2023-02-23T06:46:47.756Z,58.40
2023-02-23T06:49:21.625Z,54.97
2023-02-23T06:51:48.395Z,54.00
2023-02-23T06:54:16.180Z,46.90
2023-02-23T06:56:49.665Z,52.65
2023-02-23T06:59:22.696Z,50.67
2023-02-23T07:01:49.724Z,52.92
2023-02-23T07:04:23.688Z,53.08
2023-02-23T07:06:59.658Z,55.00
2023-02-23T07:09:26.670Z,59.75
2023-02-23T07:11:59.672Z,63.55
2023-02-23T07:14:27.326Z,82.13
2023-02-23T07:17:03.651Z,74.68
2023-02-23T07:19:31.182Z,66.97
2023-02-23T07:22:07.733Z,61.20
2023-02-23T07:24:34.553Z,64.45
2023-02-23T07:27:09.847Z,66.75
2023-02-23T07:29:36.729Z,75.10
2023-02-23T07:32:13.773Z,78.78
2023-02-23T07:34:40.722Z,89.97
2023-02-23T07:37:13.704Z,81.80
2023-02-23T07:39:40.474Z,75.97
2023-02-23T07:42:14.753Z,69.10
2023-02-23T07:44:47.665Z,78.03
2023-02-23T07:47:20.724Z,74.22
2023-02-23T07:49:47.533Z,76.47
2023-02-23T07:52:25.748Z,84.25
2023-02-23T07:54:52.893Z,81.00
2023-02-23T07:57:30.813Z,72.63
2023-02-23T07:59:57.790Z,74.28
2023-02-23T08:02:30.791Z,67.45
2023-02-23T08:05:03.928Z,72.78
2023-02-23T08:07:41.807Z,61.25
2023-02-23T08:10:15.847Z,55.35
2023-02-23T08:12:43.498Z,56.20
2023-02-23T08:15:17.770Z,61.90
2023-02-23T08:17:44.682Z,81.13
2023-02-23T08:20:17.770Z,65.85
2023-02-23T08:22:49.760Z,68.38
2023-02-23T08:25:24.963Z,69.10
2023-02-23T08:27:58.817Z,65.20
2023-02-23T08:30:25.752Z,67.70
2023-02-23T08:32:58.841Z,72.93
2023-02-23T08:35:32.805Z,74.70
2023-02-23T08:38:06.835Z,68.75
2023-02-23T08:40:39.791Z,67.18
2023-02-23T08:43:06.700Z,72.82
2023-02-23T08:45:39.831Z,77.82
2023-02-23T08:48:09.007Z,80.40
2023-02-23T08:50:42.826Z,77.18
2023-02-23T08:53:16.881Z,70.40
2023-02-23T08:55:43.814Z,68.45
2023-02-23T08:58:17.856Z,62.42
2023-02-23T09:00:45.195Z,67.80
2023-02-23T09:03:18.886Z,65.82
2023-02-23T09:05:52.900Z,71.25
2023-02-23T09:08:20.418Z,69.05
2023-02-23T09:10:59.905Z,61.13
2023-02-23T09:13:26.939Z,63.72
2023-02-23T09:16:00.957Z,65.88
2023-02-23T09:18:29.515Z,56.85
2023-02-23T09:21:02.892Z,56.78
2023-02-23T09:23:29.718Z,55.97
2023-02-23T09:26:02.858Z,60.55
2023-02-23T09:28:36.903Z,54.42
2023-02-23T09:31:15.029Z,62.88
2023-02-23T09:33:41.916Z,47.50
2023-02-23T09:36:25.039Z,56.03
2023-02-23T09:39:03.997Z,53.55
2023-02-23T09:42:00.946Z,57.80
2023-02-23T09:44:39.933Z,61.00
2023-02-23T09:47:24.976Z,52.10
2023-02-23T09:49:59.972Z,59.00
2023-02-23T09:52:39.912Z,62.45
2023-02-23T09:55:15.966Z,55.45
2023-02-23T09:58:02.982Z,53.00
2023-02-23T10:00:40.961Z,55.40
2023-02-23T10:03:24.509Z,52.40
2023-02-23T10:06:06.019Z,46.80
2023-02-23T10:09:04.988Z,48.90
2023-02-23T10:11:49.857Z,51.33
2023-02-23T10:14:26.023Z,50.22
2023-02-23T10:16:55.648Z,57.80
2023-02-23T10:19:38.967Z,49.20
2023-02-23T10:22:12.411Z,46.72
2023-02-23T10:24:47.975Z,47.47
2023-02-23T10:27:25.047Z,43.33
2023-02-23T10:30:00.985Z,46.83
2023-02-23T10:32:51.022Z,41.67
2023-02-23T10:35:28.026Z,40.80
2023-02-23T10:37:57.523Z,40.10
2023-02-23T10:40:35.074Z,38.00
2023-02-23T10:43:05.390Z,41.22
2023-02-23T10:45:54.032Z,42.33
2023-02-23T10:48:24.607Z,40.75
2023-02-23T10:51:02.031Z,36.50
2023-02-23T10:53:35.752Z,33.50
2023-02-23T10:56:17.180Z,32.78
2023-02-23T10:59:14.007Z,29.60
2023-02-23T11:02:00.994Z,27.02
2023-02-23T11:04:41.114Z,26.17
2023-02-23T11:07:22.045Z,23.60
2023-02-23T11:09:51.361Z,20.92
2023-02-23T11:12:28.398Z,20.42
2023-02-23T11:14:58.604Z,22.80
2023-02-23T11:17:37.123Z,24.17
2023-02-23T11:20:22.886Z,26.35
2023-02-23T11:23:09.530Z,29.63
2023-02-23T11:25:51.151Z,27.20
2023-02-23T11:28:37.109Z,27.40
2023-02-23T11:31:20.636Z,21.60
2023-02-23T11:34:02.139Z,21.60
2023-02-23T11:36:31.703Z,24.95
2023-02-23T11:39:24.136Z,26.60
2023-02-23T11:42:19.095Z,24.98
2023-02-23T11:45:04.908Z,24.85
2023-02-23T11:47:49.460Z,24.17
2023-02-23T11:50:27.119Z,23.88
2023-02-23T11:53:09.198Z,27.75
2023-02-23T11:55:37.605Z,29.73
2023-02-23T11:58:35.133Z,24.75
2023-02-23T12:01:18.227Z,29.30
2023-02-23T12:03:47.756Z,23.83
2023-02-23T12:06:43.224Z,25.48
2023-02-23T12:09:36.161Z,28.52
2023-02-23T12:12:09.800Z,27.08
2023-02-23T12:14:49.145Z,28.75
2023-02-23T12:17:32.211Z,24.27
2023-02-23T12:20:18.193Z,25.15
2023-02-23T12:23:10.229Z,22.20
2023-02-23T12:25:50.474Z,26.80
2023-02-23T12:28:34.201Z,24.73
2023-02-23T12:31:35.301Z,22.00
2023-02-23T12:34:11.474Z,23.02
2023-02-23T12:37:02.235Z,21.35
2023-02-23T12:39:44.223Z,18.33
2023-02-23T12:42:50.153Z,17.73
2023-02-23T12:45:48.291Z,18.00
2023-02-23T12:48:49.225Z,20.15
2023-02-23T12:51:47.243Z,18.00
2023-02-23T12:54:16.579Z,19.23
2023-02-23T12:56:56.261Z,16.55
2023-02-23T12:59:41.060Z,14.68
2023-02-23T13:02:36.297Z,15.05
2023-02-23T13:05:33.353Z,16.92
2023-02-23T13:08:27.088Z,16.55
2023-02-23T13:11:04.318Z,16.35
2023-02-23T13:13:37.261Z,18.85
2023-02-23T13:16:29.288Z,21.27
2023-02-23T13:19:22.296Z,17.65
2023-02-23T13:22:26.190Z,23.58
2023-02-23T13:25:05.406Z,24.83
2023-02-23T13:27:41.948Z,24.98
2023-02-23T13:30:19.297Z,24.98
2023-02-23T13:32:46.690Z,22.80
2023-02-23T13:35:28.416Z,24.10
2023-02-23T13:38:40.353Z,22.75
2023-02-23T13:41:34.322Z,23.15
2023-02-23T13:44:20.415Z,19.60
2023-02-23T13:47:05.300Z,19.27
2023-02-23T13:50:32.377Z,20.58
2023-02-23T13:53:05.410Z,18.63
2023-02-23T13:55:49.208Z,23.83
2023-02-23T13:58:27.361Z,21.17
2023-02-23T14:01:13.393Z,22.30
2023-02-23T14:03:52.981Z,24.52
2023-02-23T14:06:29.499Z,20.35
2023-02-23T14:09:09.795Z,19.05
2023-02-23T14:11:57.434Z,17.85
2023-02-23T14:14:33.315Z,22.67
2023-02-23T14:17:24.369Z,21.25
2023-02-23T14:20:30.439Z,26.48
2023-02-23T14:23:28.669Z,26.52
2023-02-23T14:26:15.739Z,27.10
2023-02-23T14:28:51.469Z,26.35
2023-02-23T14:31:21.328Z,28.85
2023-02-23T14:33:56.500Z,27.05
2023-02-23T14:36:26.348Z,27.45
2023-02-23T14:38:56.322Z,27.38
2023-02-23T14:41:49.430Z,25.25
2023-02-23T14:44:31.876Z,21.02
2023-02-23T14:47:15.402Z,20.67
2023-02-23T14:49:52.408Z,20.80
2023-02-23T14:52:34.462Z,23.30
2023-02-23T14:55:35.398Z,16.95
2023-02-23T14:58:10.464Z,18.88
2023-02-23T15:00:42.758Z,18.40
2023-02-23T15:03:20.423Z,19.98
2023-02-23T15:06:07.479Z,27.55
2023-02-23T15:08:45.458Z,30.98
2023-02-23T15:11:14.426Z,34.80
2023-02-23T15:13:50.445Z,31.42
2023-02-23T15:16:26.519Z,31.40
2023-02-23T15:19:00.442Z,22.13
2023-02-23T15:21:27.619Z,20.75
2023-02-23T15:24:11.731Z,19.85
2023-02-23T15:26:40.925Z,21.77
2023-02-23T15:29:10.609Z,17.27
2023-02-23T15:31:47.687Z,15.70
2023-02-23T15:34:14.551Z,18.27
2023-02-23T15:36:41.691Z,20.25
2023-02-23T15:39:23.504Z,21.95
2023-02-23T15:41:50.469Z,21.92
2023-02-23T15:44:42.582Z,23.77
2023-02-23T15:47:20.495Z,28.95
2023-02-23T15:49:54.494Z,27.13
2023-02-23T15:52:24.926Z,23.73
2023-02-23T15:55:08.492Z,19.05
2023-02-23T15:57:44.762Z,30.67
2023-02-23T16:00:33.511Z,27.15
2023-02-23T16:03:03.222Z,20.55
2023-02-23T16:05:47.195Z,26.40
2023-02-23T16:08:22.795Z,25.77
2023-02-23T16:11:03.532Z,18.02
2023-02-23T16:13:30.658Z,14.35
2023-02-23T16:16:05.611Z,18.77
2023-02-23T16:18:39.859Z,17.38
2023-02-23T16:21:15.656Z,15.75
2023-02-23T16:23:45.601Z,19.02
2023-02-23T16:26:24.576Z,18.33
2023-02-23T16:28:59.695Z,28.92
2023-02-23T16:31:46.696Z,26.05
2023-02-23T16:34:35.712Z,35.05
2023-02-23T16:37:31.745Z,44.55
2023-02-23T16:40:00.142Z,31.10
2023-02-23T16:42:31.225Z,28.30
2023-02-23T16:45:06.580Z,34.15
2023-02-23T16:47:54.582Z,37.50
2023-02-23T16:50:24.356Z,30.25
2023-02-23T16:52:59.655Z,33.67
2023-02-23T16:55:28.341Z,43.75
2023-02-23T16:58:08.638Z,38.13
2023-02-23T17:00:35.821Z,43.28
2023-02-23T17:03:19.605Z,38.78
2023-02-23T17:05:47.187Z,43.67
2023-02-23T17:08:30.733Z,34.53
2023-02-23T17:10:58.284Z,35.33
2023-02-23T17:13:33.925Z,26.73
2023-02-23T17:16:04.366Z,29.20
2023-02-23T17:18:43.735Z,33.75
2023-02-23T17:21:13.357Z,38.40
2023-02-23T17:23:59.707Z,27.60
2023-02-23T17:26:26.861Z,35.22
2023-02-23T17:29:03.844Z,37.67
2023-02-23T17:31:31.957Z,28.77
2023-02-23T17:33:59.032Z,29.77
2023-02-23T17:36:33.662Z,34.25
2023-02-23T17:39:07.652Z,40.78
2023-02-23T17:41:34.424Z,27.98
2023-02-23T17:44:09.956Z,26.15
2023-02-23T17:46:37.091Z,23.73
2023-02-23T17:49:04.251Z,22.35
2023-02-23T17:51:37.701Z,24.27
2023-02-23T17:54:10.682Z,23.15
2023-02-23T17:56:44.787Z,22.95
2023-02-23T17:59:17.782Z,21.52
2023-02-23T18:01:51.772Z,20.15
2023-02-23T18:04:24.730Z,21.40
2023-02-23T18:06:51.686Z,17.67
2023-02-23T18:09:18.483Z,22.98
2023-02-23T18:11:52.881Z,18.42
2023-02-23T18:14:19.660Z,21.15
2023-02-23T18:16:46.557Z,22.85
2023-02-23T18:19:19.710Z,18.27
2023-02-23T18:21:52.731Z,20.48
2023-02-23T18:24:27.347Z,24.65
2023-02-23T18:27:08.729Z,22.40
2023-02-23T18:29:43.782Z,19.17
2023-02-23T18:32:17.907Z,16.50
2023-02-23T18:34:44.862Z,16.05
2023-02-23T18:37:31.774Z,17.52
2023-02-23T18:39:59.592Z,21.30
2023-02-23T18:42:32.789Z,29.85
2023-02-23T18:45:05.774Z,18.83
2023-02-23T18:47:32.596Z,19.25
2023-02-23T18:50:07.774Z,22.48
2023-02-23T18:52:42.777Z,16.70
2023-02-23T18:55:15.795Z,23.85
2023-02-23T18:57:51.852Z,21.38
2023-02-23T19:00:25.870Z,17.55
2023-02-23T19:03:00.818Z,21.02
2023-02-23T19:05:27.712Z,21.05
2023-02-23T19:08:19.913Z,22.77
2023-02-23T19:10:54.097Z,17.10
2023-02-23T19:13:28.954Z,15.50
2023-02-23T19:15:56.082Z,14.10
2023-02-23T19:18:23.296Z,15.23
2023-02-23T19:21:01.873Z,13.73
2023-02-23T19:23:28.933Z,14.75
2023-02-23T19:25:55.921Z,16.10
2023-02-23T19:28:36.906Z,12.98
2023-02-23T19:31:06.773Z,19.67
2023-02-23T19:33:40.880Z,16.63
2023-02-23T19:36:16.847Z,14.35
2023-02-23T19:38:43.719Z,17.63
2023-02-23T19:41:35.911Z,13.20
2023-02-23T19:44:03.111Z,14.65
2023-02-23T19:46:36.988Z,15.32
2023-02-23T19:49:04.497Z,18.63
2023-02-23T19:51:43.857Z,17.67
2023-02-23T19:54:11.607Z,13.90
2023-02-23T19:56:44.907Z,20.13
2023-02-23T19:59:12.200Z,21.08
2023-02-23T20:01:45.944Z,12.32
2023-02-23T20:04:13.080Z,12.50
2023-02-23T20:06:50.902Z,14.07
2023-02-23T20:09:17.763Z,12.85
2023-02-23T20:11:51.000Z,13.40
2023-02-23T20:14:23.924Z,14.95
2023-02-23T20:16:58.011Z,22.67
2023-02-23T20:19:31.947Z,16.15
2023-02-23T20:21:58.956Z,17.17
2023-02-23T20:24:31.956Z,15.50
2023-02-23T20:27:00.665Z,15.68
2023-02-23T20:29:34.925Z,24.70
2023-02-23T20:32:03.580Z,21.33
2023-02-23T20:34:42.977Z,21.20
2023-02-23T20:37:16.045Z,26.73
2023-02-23T20:39:49.977Z,26.52
2023-02-23T20:42:16.899Z,24.50
2023-02-23T20:44:49.936Z,18.58
2023-02-23T20:47:16.798Z,18.30
2023-02-23T20:49:43.703Z,17.02
2023-02-23T20:52:18.989Z,19.10
2023-02-23T20:54:51.993Z,22.35
2023-02-23T20:57:18.860Z,17.95
2023-02-23T20:59:52.006Z,15.57
2023-02-23T21:02:18.979Z,22.23
2023-02-23T21:04:52.033Z,15.73
2023-02-23T21:07:25.321Z,23.02
2023-02-23T21:10:06.041Z,23.15
2023-02-23T21:12:33.324Z,19.65
2023-02-23T21:15:01.895Z,20.23
2023-02-23T21:17:35.031Z,16.83
2023-02-23T21:20:09.038Z,14.50
2023-02-23T21:22:42.032Z,18.75
2023-02-23T21:25:17.032Z,13.15
2023-02-23T21:27:51.024Z,19.42
2023-02-23T21:30:28.019Z,24.25
2023-02-23T21:32:56.363Z,20.65
2023-02-23T21:35:23.641Z,18.52
2023-02-23T21:37:58.103Z,16.15
2023-02-23T21:40:25.084Z,16.85
2023-02-23T21:42:59.072Z,17.95
2023-02-23T21:45:26.514Z,12.40
2023-02-23T21:48:08.135Z,19.85
2023-02-23T21:50:34.962Z,30.83
2023-02-23T21:53:04.206Z,16.98
2023-02-23T21:55:38.067Z,20.83
2023-02-23T21:58:07.043Z,11.30
2023-02-23T22:00:42.034Z,11.07
2023-02-23T22:03:09.617Z,19.48
2023-02-23T22:05:43.084Z,15.25
2023-02-23T22:08:15.557Z,13.48
2023-02-23T22:10:49.119Z,13.88
2023-02-23T22:13:15.962Z,23.10
2023-02-23T22:15:49.123Z,15.32
2023-02-23T22:18:28.858Z,14.95
2023-02-23T22:21:04.133Z,12.27
2023-02-23T22:23:34.529Z,12.32
2023-02-23T22:26:09.286Z,16.10
2023-02-23T22:28:37.685Z,14.32
2023-02-23T22:31:16.178Z,13.48
2023-02-23T22:33:44.110Z,11.20
2023-02-23T22:36:20.106Z,16.92
2023-02-23T22:38:53.238Z,13.35
2023-02-23T22:41:26.184Z,18.75
2023-02-23T22:43:52.924Z,6.93
2023-02-23T22:46:19.685Z,8.35
2023-02-23T22:48:53.138Z,13.02
2023-02-23T22:51:20.607Z,11.55
2023-02-23T22:53:54.110Z,10.00
2023-02-23T22:56:20.833Z,10.30
2023-02-23T22:58:56.178Z,10.45
2023-02-23T23:01:26.593Z,11.02
2023-02-23T23:04:00.479Z,7.93
2023-02-23T23:06:27.474Z,9.57
2023-02-23T23:08:56.769Z,8.65
2023-02-23T23:11:33.188Z,5.93
2023-02-23T23:14:13.180Z,6.32
2023-02-23T23:16:54.229Z,7.82
2023-02-23T23:19:31.314Z,9.98
2023-02-23T23:22:00.483Z,7.35
2023-02-23T23:24:27.441Z,7.13
2023-02-23T23:27:02.216Z,10.90
2023-02-23T23:29:32.503Z,8.40
2023-02-23T23:32:11.320Z,10.93
2023-02-23T23:34:44.219Z,9.57
2023-02-23T23:37:17.200Z,9.93
2023-02-23T23:39:44.587Z,10.85
2023-02-23T23:42:22.390Z,7.75
2023-02-23T23:44:49.123Z,9.52
2023-02-23T23:47:15.879Z,12.05
2023-02-23T23:49:49.269Z,6.63
2023-02-23T23:52:24.228Z,10.70
2023-02-23T23:54:58.202Z,8.63
2023-02-23T23:57:30.917Z,15.02
